createdAt,value
2023-05-23T00:02:20.510Z,85.66
2023-05-23T00:04:50.323Z,85.74
2023-05-23T00:07:20.079Z,85.78
2023-05-23T00:09:49.878Z,86.14
2023-05-23T00:12:19.922Z,86.56
2023-05-23T00:14:49.670Z,86.81
2023-05-23T00:17:25.801Z,86.61
2023-05-23T00:19:56.290Z,86.44
2023-05-23T00:22:26.180Z,86.11
2023-05-23T00:24:57.910Z,86.11
2023-05-23T00:27:27.642Z,85.88
2023-05-23T00:29:57.810Z,85.39
2023-05-23T00:32:30.315Z,85.07
2023-05-23T00:35:00.191Z,85.03
2023-05-23T00:37:29.931Z,84.64
2023-05-23T00:39:59.807Z,84.68
2023-05-23T00:42:29.550Z,84.69
2023-05-23T00:44:59.505Z,84.45
2023-05-23T00:47:32.060Z,84.26
2023-05-23T00:50:02.105Z,84.29
2023-05-23T00:52:31.842Z,83.76
2023-05-23T00:55:02.162Z,83.86
2023-05-23T00:57:31.920Z,83.86
2023-05-23T01:00:01.882Z,83.68
2023-05-23T01:02:36.995Z,83.25
2023-05-23T01:05:07.353Z,83.16
2023-05-23T01:07:37.123Z,83.10
2023-05-23T01:10:08.148Z,82.91
2023-05-23T01:12:41.957Z,82.64
2023-05-23T01:15:13.819Z,82.54
2023-05-23T01:17:53.621Z,82.69
2023-05-23T01:20:25.927Z,82.39
2023-05-23T01:23:23.365Z,82.43
2023-05-23T01:26:07.377Z,81.86
2023-05-23T01:28:40.414Z,81.94
2023-05-23T01:31:11.586Z,81.95
2023-05-23T01:33:41.753Z,81.80
2023-05-23T01:36:12.139Z,81.40
2023-05-23T01:38:41.913Z,81.37
2023-05-23T01:41:11.682Z,81.14
2023-05-23T01:43:44.251Z,81.11
2023-05-23T01:46:14.793Z,81.18
2023-05-23T01:48:44.926Z,81.15
2023-05-23T01:51:15.135Z,81.06
2023-05-23T01:53:44.978Z,80.81
2023-05-23T01:56:15.097Z,81.07
2023-05-23T01:58:47.620Z,80.97
2023-05-23T02:01:17.626Z,81.06
2023-05-23T02:03:47.432Z,80.81
2023-05-23T02:06:19.166Z,80.93
2023-05-23T02:08:49.954Z,80.83
2023-05-23T02:11:19.754Z,80.63
2023-05-23T02:13:52.060Z,80.65
2023-05-23T02:16:21.919Z,80.87
2023-05-23T02:18:53.143Z,80.92
2023-05-23T02:21:22.987Z,80.55
2023-05-23T02:23:52.753Z,80.44
2023-05-23T02:26:22.501Z,80.70
2023-05-23T02:28:55.207Z,80.61
2023-05-23T02:31:25.103Z,80.49
2023-05-23T02:33:55.036Z,80.85
2023-05-23T02:36:25.403Z,80.59
2023-05-23T02:38:55.199Z,80.67
2023-05-23T02:41:25.167Z,80.14
2023-05-23T02:43:57.627Z,80.53
2023-05-23T02:46:27.626Z,80.30
2023-05-23T02:48:57.548Z,80.49
2023-05-23T02:51:27.493Z,80.74
2023-05-23T02:53:57.395Z,80.76
2023-05-23T02:56:28.001Z,80.54
2023-05-23T02:59:00.503Z,80.80
2023-05-23T03:01:30.285Z,80.68
2023-05-23T03:04:00.339Z,80.74
2023-05-23T03:06:34.263Z,80.87
2023-05-23T03:09:04.146Z,80.46
2023-05-23T03:11:34.416Z,80.68
2023-05-23T03:14:06.914Z,80.59
2023-05-23T03:16:37.254Z,80.68
2023-05-23T03:19:07.589Z,80.75
2023-05-23T03:21:38.103Z,80.87
2023-05-23T03:24:08.502Z,80.71
2023-05-23T03:26:38.386Z,80.78
2023-05-23T03:29:11.250Z,80.96
2023-05-23T03:31:41.225Z,81.04
2023-05-23T03:34:11.100Z,81.07
2023-05-23T03:36:41.507Z,80.88
2023-05-23T03:39:11.398Z,81.15
2023-05-23T03:41:42.002Z,81.34
2023-05-23T03:44:15.018Z,81.26
2023-05-23T03:46:45.119Z,81.38
2023-05-23T03:49:15.729Z,81.50
2023-05-23T03:51:45.694Z,81.17
2023-05-23T03:54:19.546Z,81.41
2023-05-23T03:56:49.445Z,81.55
2023-05-23T03:59:21.951Z,81.80
2023-05-23T04:01:51.836Z,81.42
2023-05-23T04:04:23.267Z,81.72
2023-05-23T04:06:53.205Z,81.43
2023-05-23T04:09:23.056Z,81.51
2023-05-23T04:11:54.613Z,81.31
2023-05-23T04:14:27.911Z,81.30
2023-05-23T04:16:59.344Z,81.37
2023-05-23T04:19:29.270Z,81.22
2023-05-23T04:21:59.096Z,81.48
2023-05-23T04:24:29.050Z,81.72
2023-05-23T04:26:59.555Z,81.83
2023-05-23T04:29:31.904Z,82.03
2023-05-23T04:32:02.507Z,82.19
2023-05-23T04:34:34.003Z,82.65
2023-05-23T04:37:04.702Z,82.82
2023-05-23T04:39:35.874Z,83.09
2023-05-23T04:42:33.769Z,83.01
2023-05-23T04:45:26.779Z,83.45
2023-05-23T04:48:13.224Z,83.27
2023-05-23T04:50:47.846Z,83.20
2023-05-23T04:53:17.981Z,83.18
2023-05-23T04:55:48.408Z,83.02
2023-05-23T04:58:20.680Z,83.30
2023-05-23T05:00:55.074Z,83.13
2023-05-23T05:03:25.339Z,83.23
2023-05-23T05:05:56.370Z,83.31
2023-05-23T05:08:26.327Z,83.13
2023-05-23T05:10:57.500Z,83.04
2023-05-23T05:13:27.867Z,82.67
2023-05-23T05:16:01.900Z,82.70
2023-05-23T05:18:32.233Z,82.90
2023-05-23T05:21:02.204Z,82.64
2023-05-23T05:23:34.276Z,82.67
2023-05-23T05:26:05.559Z,82.56
2023-05-23T05:28:35.449Z,82.54
2023-05-23T05:31:08.265Z,82.56
2023-05-23T05:33:39.410Z,82.47
2023-05-23T05:36:15.211Z,82.59
2023-05-23T05:38:46.467Z,82.35
2023-05-23T05:41:16.439Z,82.61
2023-05-23T05:43:50.722Z,82.76
2023-05-23T05:46:23.909Z,82.59
2023-05-23T05:48:54.999Z,82.88
2023-05-23T05:51:25.084Z,82.96
2023-05-23T05:53:54.839Z,82.84
2023-05-23T05:56:26.424Z,82.84
2023-05-23T05:58:56.498Z,82.66
2023-05-23T06:01:31.044Z,82.87
2023-05-23T06:04:01.361Z,83.02
2023-05-23T06:06:31.919Z,82.79
2023-05-23T06:09:02.366Z,82.94
2023-05-23T06:11:32.720Z,83.23
2023-05-23T06:14:02.906Z,83.11
2023-05-23T06:16:35.586Z,83.18
2023-05-23T06:19:05.381Z,83.34
2023-05-23T06:21:37.472Z,83.43
2023-05-23T06:24:09.198Z,83.38
2023-05-23T06:26:39.078Z,83.42
2023-05-23T06:29:09.002Z,83.14
2023-05-23T06:31:41.405Z,82.71
2023-05-23T06:34:11.247Z,82.40
2023-05-23T06:36:43.151Z,82.52
2023-05-23T06:39:12.906Z,82.37
2023-05-23T06:41:42.823Z,82.39
2023-05-23T06:44:12.624Z,82.12
2023-05-23T06:46:48.700Z,82.25
2023-05-23T06:49:19.864Z,82.19
2023-05-23T06:51:49.931Z,81.91
2023-05-23T06:54:19.734Z,81.86
2023-05-23T06:56:49.524Z,81.82
2023-05-23T06:59:19.444Z,81.55
2023-05-23T07:01:51.817Z,81.49
2023-05-23T07:04:21.665Z,81.42
2023-05-23T07:06:52.810Z,81.32
2023-05-23T07:09:23.231Z,81.01
2023-05-23T07:11:53.608Z,80.88
2023-05-23T07:14:23.683Z,80.37
2023-05-23T07:16:56.038Z,80.36
2023-05-23T07:19:26.082Z,79.85
2023-05-23T07:21:56.127Z,80.00
2023-05-23T07:24:25.970Z,80.10
2023-05-23T07:26:58.204Z,79.96
2023-05-23T07:29:29.320Z,79.69
2023-05-23T07:32:01.831Z,79.39
2023-05-23T07:34:32.258Z,79.37
2023-05-23T07:37:04.318Z,79.42
2023-05-23T07:39:41.619Z,79.53
2023-05-23T07:42:11.481Z,79.60
2023-05-23T07:44:41.411Z,79.34
2023-05-23T07:47:14.323Z,79.55
2023-05-23T07:49:44.892Z,79.42
2023-05-23T07:52:15.034Z,79.17
2023-05-23T07:54:44.804Z,78.71
2023-05-23T07:57:16.853Z,78.72
2023-05-23T07:59:47.414Z,78.58
2023-05-23T08:02:20.001Z,78.29
2023-05-23T08:04:51.248Z,78.47
2023-05-23T08:07:22.040Z,78.57
2023-05-23T08:09:58.782Z,78.59
2023-05-23T08:12:28.541Z,78.74
2023-05-23T08:15:10.231Z,79.05
2023-05-23T08:17:48.057Z,79.02
2023-05-23T08:20:20.172Z,78.97
2023-05-23T08:22:50.002Z,79.04
2023-05-23T08:25:19.957Z,79.12
2023-05-23T08:27:50.118Z,78.93
2023-05-23T08:30:39.695Z,79.05
2023-05-23T08:33:12.918Z,78.58
2023-05-23T08:35:45.591Z,78.52
2023-05-23T08:38:18.299Z,78.08
2023-05-23T08:40:59.736Z,78.23
2023-05-23T08:43:30.387Z,78.34
2023-05-23T08:46:00.573Z,78.14
2023-05-23T08:48:35.801Z,77.96
2023-05-23T08:51:06.351Z,78.16
2023-05-23T08:53:36.438Z,78.08
2023-05-23T08:56:09.392Z,78.26
2023-05-23T08:58:45.656Z,78.70
2023-05-23T09:01:18.572Z,78.55
2023-05-23T09:03:52.832Z,78.45
2023-05-23T09:06:29.028Z,78.41
2023-05-23T09:08:59.823Z,78.63
2023-05-23T09:11:29.853Z,78.61
2023-05-23T09:14:01.632Z,78.29
2023-05-23T09:16:35.961Z,78.85
2023-05-23T09:19:18.318Z,78.74
2023-05-23T09:21:56.862Z,78.88
2023-05-23T09:24:38.640Z,78.74
2023-05-23T09:27:11.306Z,79.03
2023-05-23T09:29:42.366Z,79.30
2023-05-23T09:32:16.212Z,79.33
2023-05-23T09:34:59.040Z,79.92
2023-05-23T09:37:34.161Z,79.81
2023-05-23T09:40:04.848Z,80.07
2023-05-23T09:42:36.465Z,80.33
2023-05-23T09:45:07.355Z,80.28
2023-05-23T09:47:37.532Z,80.43
2023-05-23T09:50:11.606Z,80.59
2023-05-23T09:52:41.441Z,80.33
2023-05-23T09:55:12.299Z,80.37
2023-05-23T09:57:44.351Z,79.67
2023-05-23T10:00:15.516Z,79.21
2023-05-23T10:02:58.150Z,78.41
2023-05-23T10:05:37.352Z,78.26
2023-05-23T10:08:12.085Z,78.37
2023-05-23T10:11:28.454Z,78.69
2023-05-23T10:13:59.000Z,78.44
2023-05-23T10:16:32.131Z,77.58
2023-05-23T10:19:06.290Z,76.78
2023-05-23T10:21:46.466Z,75.44
2023-05-23T10:24:17.732Z,74.72
2023-05-23T10:26:48.261Z,73.05
2023-05-23T10:29:17.953Z,71.94
2023-05-23T10:31:47.966Z,72.19
2023-05-23T10:34:24.086Z,72.26
2023-05-23T10:37:02.794Z,72.26
2023-05-23T10:39:44.602Z,72.62
2023-05-23T10:42:24.984Z,72.97
2023-05-23T10:44:54.754Z,73.51
2023-05-23T10:47:31.155Z,73.91
2023-05-23T10:50:00.976Z,73.77
2023-05-23T10:52:42.228Z,73.91
2023-05-23T10:55:17.953Z,73.85
2023-05-23T10:57:48.827Z,74.36
2023-05-23T11:00:22.571Z,74.51
2023-05-23T11:02:57.596Z,74.82
2023-05-23T11:05:28.455Z,74.79
2023-05-23T11:08:14.505Z,75.02
2023-05-23T11:11:02.397Z,75.48
2023-05-23T11:14:03.102Z,74.99
2023-05-23T11:16:34.543Z,74.62
2023-05-23T11:19:26.457Z,74.03
2023-05-23T11:21:57.944Z,73.06
2023-05-23T11:24:53.945Z,71.32
2023-05-23T11:27:30.195Z,70.64
2023-05-23T11:30:05.359Z,70.46
2023-05-23T11:32:35.291Z,70.30
2023-05-23T11:35:05.514Z,69.30
2023-05-23T11:37:35.580Z,67.91
2023-05-23T11:40:32.810Z,67.58
2023-05-23T11:43:03.326Z,66.34
2023-05-23T11:45:34.681Z,65.47
2023-05-23T11:48:11.957Z,64.14
2023-05-23T11:50:48.943Z,64.67
2023-05-23T11:53:21.875Z,64.65
2023-05-23T11:55:55.461Z,64.79
2023-05-23T11:58:25.988Z,64.53
2023-05-23T12:00:55.726Z,64.44
2023-05-23T12:03:25.679Z,64.21
2023-05-23T12:05:55.515Z,63.79
2023-05-23T12:08:25.336Z,64.21
2023-05-23T12:11:00.772Z,63.77
2023-05-23T12:13:32.610Z,63.37
2023-05-23T12:16:03.423Z,62.58
2023-05-23T12:18:36.024Z,62.66
2023-05-23T12:21:08.420Z,61.97
2023-05-23T12:23:38.878Z,61.74
2023-05-23T12:26:11.544Z,61.80
2023-05-23T12:28:43.327Z,61.17
2023-05-23T12:31:18.768Z,61.14
2023-05-23T12:33:49.765Z,61.00
2023-05-23T12:36:25.402Z,60.93
2023-05-23T12:38:55.293Z,60.41
2023-05-23T12:41:27.643Z,59.67
2023-05-23T12:43:58.359Z,59.42
2023-05-23T12:46:29.558Z,59.27
2023-05-23T12:48:59.705Z,59.48
2023-05-23T12:51:29.589Z,58.96
2023-05-23T12:54:00.176Z,58.94
2023-05-23T12:56:32.512Z,58.61
2023-05-23T12:59:02.267Z,58.64
2023-05-23T13:01:34.052Z,58.71
2023-05-23T13:04:04.058Z,58.83
2023-05-23T13:06:34.244Z,58.41
2023-05-23T13:09:04.058Z,57.96
2023-05-23T13:11:36.585Z,57.95
2023-05-23T13:14:06.716Z,57.12
2023-05-23T13:16:36.622Z,57.05
2023-05-23T13:19:06.700Z,56.59
2023-05-23T13:21:36.511Z,57.03
2023-05-23T13:24:06.393Z,57.53
2023-05-23T13:26:38.765Z,56.65
2023-05-23T13:29:08.711Z,56.75
2023-05-23T13:31:38.838Z,56.00
2023-05-23T13:34:08.648Z,54.48
2023-05-23T13:36:38.689Z,53.84
2023-05-23T13:39:08.587Z,53.89
2023-05-23T13:41:40.970Z,53.01
2023-05-23T13:44:10.756Z,52.24
2023-05-23T13:46:40.562Z,52.03
2023-05-23T13:49:10.410Z,51.67
2023-05-23T13:51:40.242Z,50.10
2023-05-23T13:54:10.376Z,50.75
2023-05-23T13:56:43.910Z,50.59
2023-05-23T13:59:13.645Z,50.82
2023-05-23T14:01:43.624Z,50.09
2023-05-23T14:04:13.518Z,50.41
2023-05-23T14:06:43.566Z,50.24
2023-05-23T14:09:13.351Z,49.65
2023-05-23T14:11:45.921Z,48.66
2023-05-23T14:14:15.752Z,48.37
2023-05-23T14:16:45.615Z,48.99
2023-05-23T14:19:15.621Z,48.96
2023-05-23T14:21:45.916Z,48.61
2023-05-23T14:24:15.865Z,48.75
2023-05-23T14:26:48.222Z,49.40
2023-05-23T14:29:18.181Z,49.63
2023-05-23T14:31:48.034Z,49.81
2023-05-23T14:34:17.947Z,49.42
2023-05-23T14:36:47.668Z,49.94
2023-05-23T14:39:17.482Z,50.18
2023-05-23T14:41:49.867Z,49.82
2023-05-23T14:44:19.707Z,49.48
2023-05-23T14:46:50.457Z,48.99
2023-05-23T14:49:20.590Z,48.88
2023-05-23T14:51:51.570Z,49.56
2023-05-23T14:54:22.230Z,49.05
2023-05-23T14:56:54.572Z,49.16
2023-05-23T14:59:24.715Z,48.73
2023-05-23T15:01:54.953Z,48.42
2023-05-23T15:04:24.792Z,48.09
2023-05-23T15:06:54.584Z,48.58
2023-05-23T15:09:24.368Z,48.88
2023-05-23T15:11:57.123Z,49.31
2023-05-23T15:14:29.737Z,49.25
2023-05-23T15:17:07.725Z,49.53
2023-05-23T15:19:39.347Z,49.36
2023-05-23T15:22:13.172Z,49.47
2023-05-23T15:24:48.666Z,49.35
2023-05-23T15:27:22.375Z,49.26
2023-05-23T15:29:52.152Z,49.04
2023-05-23T15:32:22.073Z,48.77
2023-05-23T15:34:52.107Z,49.17
2023-05-23T15:37:21.834Z,48.95
2023-05-23T15:39:51.674Z,49.09
2023-05-23T15:42:23.970Z,48.99
2023-05-23T15:44:53.873Z,48.73
2023-05-23T15:47:24.178Z,48.67
2023-05-23T15:49:54.104Z,48.76
2023-05-23T15:52:23.813Z,48.68
2023-05-23T15:54:53.580Z,49.00
2023-05-23T15:57:25.917Z,49.46
2023-05-23T15:59:55.824Z,49.60
2023-05-23T16:02:25.826Z,49.77
2023-05-23T16:04:56.766Z,49.69
2023-05-23T16:07:26.610Z,49.58
2023-05-23T16:09:56.404Z,49.51
2023-05-23T16:12:28.844Z,49.26
2023-05-23T16:14:58.590Z,49.68
2023-05-23T16:17:28.317Z,49.46
2023-05-23T16:19:58.039Z,49.78
2023-05-23T16:22:27.808Z,49.69
2023-05-23T16:24:57.513Z,49.71
2023-05-23T16:27:29.820Z,50.21
2023-05-23T16:29:59.613Z,50.42
2023-05-23T16:32:30.869Z,49.83
2023-05-23T16:35:01.061Z,50.25
2023-05-23T16:37:30.788Z,50.44
2023-05-23T16:40:01.000Z,50.73
2023-05-23T16:42:33.417Z,51.06
2023-05-23T16:45:03.192Z,51.19
2023-05-23T16:47:32.899Z,50.84
2023-05-23T16:50:02.681Z,51.12
2023-05-23T16:52:32.459Z,50.79
2023-05-23T16:55:02.251Z,50.50
2023-05-23T16:57:34.596Z,50.48
2023-05-23T17:00:05.626Z,50.15
2023-05-23T17:02:35.383Z,50.31
2023-05-23T17:05:05.233Z,50.38
2023-05-23T17:07:34.941Z,50.54
2023-05-23T17:10:04.685Z,50.63
2023-05-23T17:12:37.061Z,50.52
2023-05-23T17:15:07.679Z,50.75
2023-05-23T17:17:37.397Z,50.97
2023-05-23T17:20:08.381Z,51.42
2023-05-23T17:22:40.192Z,51.35
2023-05-23T17:25:11.961Z,50.97
2023-05-23T17:27:45.293Z,51.28
2023-05-23T17:30:18.898Z,51.12
2023-05-23T17:32:49.909Z,50.51
2023-05-23T17:35:20.565Z,50.75
2023-05-23T17:37:52.787Z,50.49
2023-05-23T17:40:27.617Z,50.34
2023-05-23T17:43:00.138Z,50.64
2023-05-23T17:45:29.911Z,50.40
2023-05-23T17:48:03.705Z,50.85
2023-05-23T17:50:33.778Z,50.77
2023-05-23T17:53:04.399Z,50.83
2023-05-23T17:55:34.269Z,50.98
2023-05-23T17:58:06.614Z,51.33
2023-05-23T18:00:36.848Z,51.13
2023-05-23T18:03:07.374Z,51.57
2023-05-23T18:05:37.118Z,51.41
2023-05-23T18:08:07.875Z,51.82
2023-05-23T18:10:37.698Z,51.87
2023-05-23T18:13:10.067Z,52.19
2023-05-23T18:15:39.827Z,52.32
2023-05-23T18:18:09.641Z,52.78
2023-05-23T18:20:39.671Z,52.52
2023-05-23T18:23:09.694Z,52.71
2023-05-23T18:25:39.414Z,52.70
2023-05-23T18:28:12.164Z,52.79
2023-05-23T18:30:42.169Z,53.14
2023-05-23T18:33:12.162Z,52.76
2023-05-23T18:35:42.260Z,52.89
2023-05-23T18:38:12.638Z,53.21
2023-05-23T18:40:42.625Z,53.50
2023-05-23T18:43:17.608Z,53.79
2023-05-23T18:45:47.488Z,53.95
2023-05-23T18:48:17.541Z,54.08
2023-05-23T18:50:47.561Z,54.36
2023-05-23T18:53:17.401Z,54.38
2023-05-23T18:55:47.133Z,54.92
2023-05-23T18:58:19.738Z,55.35
2023-05-23T19:00:49.790Z,55.28
2023-05-23T19:03:19.918Z,55.74
2023-05-23T19:05:49.885Z,56.01
2023-05-23T19:08:19.624Z,56.23
2023-05-23T19:10:49.364Z,56.45
2023-05-23T19:13:21.930Z,56.78
2023-05-23T19:15:52.193Z,57.11
2023-05-23T19:18:22.809Z,57.32
2023-05-23T19:20:53.310Z,57.45
2023-05-23T19:23:23.044Z,57.71
2023-05-23T19:25:53.038Z,58.04
2023-05-23T19:28:25.385Z,58.21
2023-05-23T19:30:55.130Z,58.25
2023-05-23T19:33:25.081Z,58.40
2023-05-23T19:35:55.071Z,58.63
2023-05-23T19:38:24.878Z,59.13
2023-05-23T19:40:54.644Z,59.35
2023-05-23T19:43:26.992Z,59.53
2023-05-23T19:45:57.065Z,59.91
2023-05-23T19:48:26.843Z,60.16
2023-05-23T19:50:56.612Z,60.24
2023-05-23T19:53:26.324Z,60.59
2023-05-23T19:55:56.613Z,60.87
2023-05-23T19:58:28.940Z,60.93
2023-05-23T20:00:58.815Z,61.38
2023-05-23T20:03:29.155Z,61.52
2023-05-23T20:05:59.622Z,61.93
2023-05-23T20:08:29.623Z,62.04
2023-05-23T20:10:59.564Z,62.38
2023-05-23T20:13:32.520Z,62.66
2023-05-23T20:16:02.630Z,62.64
2023-05-23T20:18:32.404Z,63.12
2023-05-23T20:21:04.868Z,63.34
2023-05-23T20:23:35.154Z,63.42
2023-05-23T20:26:05.009Z,63.76
2023-05-23T20:28:37.895Z,63.97
2023-05-23T20:31:07.931Z,64.12
2023-05-23T20:33:37.686Z,64.34
2023-05-23T20:36:08.693Z,64.68
2023-05-23T20:38:38.448Z,64.75
2023-05-23T20:41:08.515Z,64.85
2023-05-23T20:43:40.848Z,64.89
2023-05-23T20:46:12.016Z,64.96
2023-05-23T20:48:41.857Z,64.94
2023-05-23T20:51:12.200Z,64.93
2023-05-23T20:53:42.119Z,64.94
2023-05-23T20:56:12.273Z,64.65
2023-05-23T20:58:45.984Z,64.68
2023-05-23T21:01:15.807Z,64.55
2023-05-23T21:03:46.088Z,64.52
2023-05-23T21:06:16.370Z,64.52
2023-05-23T21:08:46.145Z,64.64
2023-05-23T21:11:15.896Z,64.79
2023-05-23T21:13:48.362Z,64.57
2023-05-23T21:16:18.145Z,64.69
2023-05-23T21:18:48.025Z,64.98
2023-05-23T21:21:17.908Z,64.87
2023-05-23T21:23:47.657Z,65.25
2023-05-23T21:26:17.618Z,65.14
2023-05-23T21:28:49.985Z,65.33
2023-05-23T21:31:29.829Z,65.37
2023-05-23T21:34:21.612Z,65.31
2023-05-23T21:36:53.583Z,65.57
2023-05-23T21:39:23.345Z,65.77
2023-05-23T21:41:53.107Z,65.66
2023-05-23T21:44:25.455Z,65.82
2023-05-23T21:46:55.261Z,66.03
2023-05-23T21:49:25.086Z,65.86
2023-05-23T21:51:55.326Z,66.16
2023-05-23T21:54:25.079Z,66.27
2023-05-23T21:56:54.866Z,66.46
2023-05-23T21:59:27.493Z,66.45
2023-05-23T22:01:57.385Z,66.49
2023-05-23T22:04:27.288Z,66.73
2023-05-23T22:06:57.222Z,66.85
2023-05-23T22:09:26.974Z,67.13
2023-05-23T22:11:56.849Z,67.22
2023-05-23T22:14:29.606Z,67.51
2023-05-23T22:17:02.261Z,67.60
2023-05-23T22:19:32.234Z,67.56
2023-05-23T22:22:02.418Z,67.90
2023-05-23T22:24:32.186Z,68.10
2023-05-23T22:27:03.359Z,68.07
2023-05-23T22:29:36.262Z,68.32
2023-05-23T22:32:06.305Z,68.48
2023-05-23T22:34:36.153Z,68.53
2023-05-23T22:37:05.998Z,68.63
2023-05-23T22:39:35.736Z,68.76
2023-05-23T22:42:05.555Z,69.02
2023-05-23T22:44:38.078Z,69.13
2023-05-23T22:47:10.347Z,69.39
2023-05-23T22:49:42.252Z,69.56
2023-05-23T22:52:12.168Z,69.67
2023-05-23T22:54:41.932Z,69.68
2023-05-23T22:57:11.666Z,69.73
2023-05-23T22:59:44.044Z,70.09
2023-05-23T23:02:13.804Z,70.16
2023-05-23T23:04:44.508Z,70.12
2023-05-23T23:07:14.275Z,70.33
2023-05-23T23:09:44.013Z,70.32
2023-05-23T23:12:13.761Z,70.49
2023-05-23T23:14:46.352Z,70.63
2023-05-23T23:17:16.597Z,70.78
2023-05-23T23:19:47.007Z,70.85
2023-05-23T23:22:16.787Z,70.90
2023-05-23T23:24:47.677Z,70.84
2023-05-23T23:27:17.482Z,71.07
2023-05-23T23:29:49.832Z,71.28
2023-05-23T23:45:58.501Z,71.69
2023-05-23T23:48:28.159Z,71.51
2023-05-23T23:50:57.765Z,71.85
2023-05-23T23:53:27.787Z,71.90
2023-05-23T23:55:57.404Z,72.12
2023-05-23T23:58:27.046Z,72.19
